createdAt,value
2017-04-22T00:00:27.686Z,5.10
2017-04-22T00:01:33.677Z,5.00
2017-04-22T00:02:39.405Z,5.00
2017-04-22T00:03:45.450Z,5.00
2017-04-22T00:04:51.437Z,5.00
2017-04-22T00:05:57.957Z,4.90
2017-04-22T00:07:03.821Z,5.00
2017-04-22T00:08:09.593Z,5.00
2017-04-22T00:09:15.475Z,5.00
2017-04-22T00:10:21.287Z,4.90
2017-04-22T00:11:27.293Z,5.00
2017-04-22T00:12:33.432Z,4.90
2017-04-22T00:13:39.998Z,4.90
2017-04-22T00:14:46.055Z,4.90
2017-04-22T00:15:51.993Z,4.80
2017-04-22T00:16:58.055Z,4.90
2017-04-22T00:18:04.121Z,4.90
2017-04-22T00:19:10.100Z,4.90
2017-04-22T00:20:16.172Z,4.90
2017-04-22T00:21:22.350Z,4.90
2017-04-22T00:22:28.233Z,4.90
2017-04-22T00:23:34.037Z,4.90
2017-04-22T00:24:40.133Z,4.80
2017-04-22T00:25:46.236Z,4.80
2017-04-22T00:26:52.976Z,4.80
2017-04-22T00:27:59.088Z,4.80
2017-04-22T00:29:05.104Z,4.80
2017-04-22T00:30:11.855Z,4.70
2017-04-22T00:31:17.943Z,4.70
2017-04-22T00:32:23.863Z,4.80
2017-04-22T00:33:29.825Z,4.80
2017-04-22T00:34:35.727Z,4.70
2017-04-22T00:35:42.034Z,4.70
2017-04-22T00:36:47.849Z,4.70
2017-04-22T00:37:53.728Z,4.70
2017-04-22T00:38:59.975Z,4.70
2017-04-22T00:40:05.865Z,4.60
2017-04-22T00:41:11.669Z,4.60
2017-04-22T00:42:17.660Z,4.60
2017-04-22T00:43:24.216Z,4.70
2017-04-22T00:44:30.223Z,4.60
2017-04-22T00:45:36.256Z,4.60
2017-04-22T00:46:42.345Z,4.60
2017-04-22T00:47:48.353Z,4.60
2017-04-22T00:48:54.573Z,4.60
2017-04-22T00:50:01.244Z,4.60
2017-04-22T00:51:07.155Z,4.60
2017-04-22T00:52:13.181Z,4.60
2017-04-22T00:53:18.993Z,4.60
2017-04-22T00:54:25.033Z,4.60
2017-04-22T00:55:30.832Z,4.60
2017-04-22T00:56:36.676Z,4.60
2017-04-22T00:57:42.741Z,4.60
2017-04-22T00:58:48.749Z,4.60
2017-04-22T00:59:54.852Z,4.50
2017-04-22T01:01:00.962Z,4.60
2017-04-22T01:02:06.915Z,4.60
2017-04-22T01:03:12.762Z,4.60
2017-04-22T01:04:18.685Z,4.60
2017-04-22T01:05:24.611Z,4.70
2017-04-22T01:06:30.662Z,4.70
2017-04-22T01:07:36.729Z,4.70
2017-04-22T01:08:42.700Z,4.70
2017-04-22T01:09:48.700Z,4.80
2017-04-22T01:10:54.632Z,4.80
2017-04-22T01:12:00.714Z,4.90
2017-04-22T01:13:06.649Z,4.90
2017-04-22T01:14:12.875Z,4.90
2017-04-22T01:15:18.562Z,4.80
2017-04-22T01:16:24.857Z,4.80
2017-04-22T01:17:31.067Z,4.90
2017-04-22T01:18:37.874Z,4.80
2017-04-22T01:19:43.934Z,4.80
2017-04-22T01:20:49.724Z,4.80
2017-04-22T01:21:55.745Z,4.90
2017-04-22T01:23:01.742Z,4.90
2017-04-22T01:24:07.806Z,4.90
2017-04-22T01:25:13.934Z,4.90
2017-04-22T01:26:19.753Z,4.90
2017-04-22T01:27:25.727Z,4.90
2017-04-22T01:28:31.578Z,4.90
2017-04-22T01:29:37.319Z,4.90
2017-04-22T01:30:43.423Z,4.80
2017-04-22T01:31:49.621Z,4.90
2017-04-22T01:32:56.193Z,4.80
2017-04-22T01:34:02.188Z,4.80
2017-04-22T01:35:08.037Z,4.80
2017-04-22T01:36:14.862Z,4.80
2017-04-22T01:37:22.493Z,4.70
2017-04-22T01:38:28.452Z,4.70
2017-04-22T01:39:34.439Z,4.70
2017-04-22T01:40:40.202Z,4.70
2017-04-22T01:41:45.597Z,4.70
2017-04-22T01:42:51.550Z,4.60
2017-04-22T01:43:58.327Z,4.60
2017-04-22T01:45:04.240Z,4.50
2017-04-22T01:46:10.289Z,4.60
2017-04-22T01:47:16.565Z,4.50
2017-04-22T01:48:22.316Z,4.50
2017-04-22T01:49:28.040Z,4.50
2017-04-22T01:50:33.969Z,4.40
2017-04-22T01:51:39.999Z,4.50
2017-04-22T01:52:45.761Z,4.50
2017-04-22T01:53:51.816Z,4.50
2017-04-22T01:54:57.866Z,4.60
2017-04-22T01:56:03.701Z,4.60
2017-04-22T01:57:10.459Z,4.60
2017-04-22T01:58:16.828Z,4.60
2017-04-22T01:59:22.750Z,4.60
2017-04-22T02:00:29.297Z,4.60
2017-04-22T02:01:35.151Z,4.60
2017-04-22T02:02:41.110Z,4.50
2017-04-22T02:03:47.659Z,4.50
2017-04-22T02:04:53.727Z,4.50
2017-04-22T02:05:59.761Z,4.50
2017-04-22T02:07:05.545Z,4.50
2017-04-22T02:08:11.513Z,4.50
2017-04-22T02:09:17.281Z,4.50
2017-04-22T02:10:23.333Z,4.50
2017-04-22T02:11:29.355Z,4.50
2017-04-22T02:12:35.357Z,4.40
2017-04-22T02:13:41.902Z,4.40
2017-04-22T02:14:47.941Z,4.40
2017-04-22T02:15:53.888Z,4.40
2017-04-22T02:16:59.734Z,4.30
2017-04-22T02:18:05.681Z,4.40
2017-04-22T02:19:11.631Z,4.30
2017-04-22T02:20:17.659Z,4.30
2017-04-22T02:21:23.545Z,4.30
2017-04-22T02:22:29.389Z,4.30
2017-04-22T02:23:35.177Z,4.30
2017-04-22T02:24:40.977Z,4.30
2017-04-22T02:25:46.728Z,4.30
2017-04-22T02:26:54.581Z,4.30
2017-04-22T02:28:01.381Z,4.30
2017-04-22T02:29:07.527Z,4.30
2017-04-22T02:30:13.880Z,4.30
2017-04-22T02:31:20.457Z,4.30
2017-04-22T02:32:26.433Z,4.30
2017-04-22T02:33:32.510Z,4.30
2017-04-22T02:34:39.305Z,4.30
2017-04-22T02:35:45.354Z,4.20
2017-04-22T02:36:51.457Z,4.40
2017-04-22T02:37:57.530Z,4.20
2017-04-22T02:39:03.606Z,4.20
2017-04-22T02:40:10.173Z,4.30
2017-04-22T02:42:22.253Z,4.40
2017-04-22T02:43:28.240Z,4.40
2017-04-22T02:44:34.714Z,4.30
2017-04-22T02:45:40.706Z,4.30
2017-04-22T02:46:46.500Z,4.30
2017-04-22T02:47:52.386Z,4.20
2017-04-22T02:48:58.299Z,4.30
2017-04-22T02:50:04.343Z,4.30
2017-04-22T02:51:10.465Z,4.30
2017-04-22T02:52:16.585Z,4.30
2017-04-22T02:53:22.514Z,4.30
2017-04-22T02:54:28.517Z,4.30
2017-04-22T02:55:34.510Z,4.30
2017-04-22T02:56:41.458Z,4.20
2017-04-22T02:57:48.134Z,4.30
2017-04-22T02:58:54.224Z,4.30
2017-04-22T03:00:00.348Z,4.30
2017-04-22T03:01:06.461Z,4.40
2017-04-22T03:02:12.603Z,4.40
2017-04-22T03:03:19.186Z,4.40
2017-04-22T03:04:25.266Z,4.30
2017-04-22T03:05:31.168Z,4.40
2017-04-22T03:06:37.168Z,4.40
2017-04-22T03:07:43.174Z,4.40
2017-04-22T03:08:49.056Z,4.40
2017-04-22T03:09:55.154Z,4.30
2017-04-22T03:11:00.942Z,4.30
2017-04-22T03:12:06.997Z,4.20
2017-04-22T03:13:13.621Z,4.20
2017-04-22T03:14:19.469Z,4.20
2017-04-22T03:15:25.401Z,4.20
2017-04-22T03:16:31.464Z,4.20
2017-04-22T03:17:37.389Z,4.20
2017-04-22T03:18:44.428Z,4.20
2017-04-22T03:19:51.086Z,4.20
2017-04-22T03:20:56.917Z,4.20
2017-04-22T03:22:02.811Z,4.20
2017-04-22T03:23:09.482Z,4.10
2017-04-22T03:24:15.499Z,4.20
2017-04-22T03:25:21.444Z,4.20
2017-04-22T03:26:27.256Z,4.10
2017-04-22T03:27:33.261Z,4.10
2017-04-22T03:28:38.979Z,4.00
2017-04-22T03:29:44.697Z,4.00
2017-04-22T03:30:50.661Z,4.00
2017-04-22T03:31:57.396Z,4.00
2017-04-22T03:33:03.989Z,4.00
2017-04-22T03:34:09.976Z,4.10
2017-04-22T03:35:15.920Z,4.10
2017-04-22T03:36:21.786Z,4.10
2017-04-22T03:37:27.533Z,4.10
2017-04-22T03:38:33.392Z,4.10
2017-04-22T03:39:39.389Z,4.10
2017-04-22T03:40:45.450Z,4.20
2017-04-22T03:41:52.149Z,4.10
2017-04-22T03:42:58.196Z,4.20
2017-04-22T03:44:04.471Z,4.20
2017-04-22T03:45:10.396Z,4.20
2017-04-22T03:46:16.481Z,4.20
2017-04-22T03:47:23.132Z,4.20
2017-04-22T03:48:28.904Z,4.20
2017-04-22T03:49:34.842Z,4.20
2017-04-22T03:50:40.584Z,4.20
2017-04-22T03:51:46.461Z,4.20
2017-04-22T03:52:52.476Z,4.20
2017-04-22T03:53:58.485Z,4.30
2017-04-22T03:55:04.288Z,4.30
2017-04-22T03:56:10.290Z,4.30
2017-04-22T03:57:16.202Z,4.30
2017-04-22T03:58:22.326Z,4.30
2017-04-22T03:59:28.189Z,4.20
2017-04-22T04:00:34.828Z,4.20
2017-04-22T04:01:40.599Z,4.20
2017-04-22T04:02:46.371Z,4.20
2017-04-22T04:03:52.329Z,4.20
2017-04-22T04:04:58.088Z,4.20
2017-04-22T04:06:03.869Z,4.20
2017-04-22T04:07:09.788Z,4.30
2017-04-22T04:08:15.794Z,4.20
2017-04-22T04:09:21.905Z,4.20
2017-04-22T04:10:27.684Z,4.20
2017-04-22T04:11:34.350Z,4.20
2017-04-22T04:12:40.112Z,4.30
2017-04-22T04:13:46.721Z,4.30
2017-04-22T04:14:52.865Z,4.30
2017-04-22T04:15:59.577Z,4.30
2017-04-22T04:17:06.127Z,4.30
2017-04-22T04:18:11.942Z,4.30
2017-04-22T04:19:17.858Z,4.20
2017-04-22T04:20:23.833Z,4.20
2017-04-22T04:21:29.785Z,4.20
2017-04-22T04:22:35.650Z,4.20
2017-04-22T04:23:42.216Z,4.20
2017-04-22T04:24:48.329Z,4.20
2017-04-22T04:25:54.264Z,4.20
2017-04-22T04:27:00.253Z,4.30
2017-04-22T04:28:06.188Z,4.30
2017-04-22T04:29:12.007Z,4.30
2017-04-22T04:30:17.984Z,4.30
2017-04-22T04:31:23.972Z,4.30
2017-04-22T04:32:34.562Z,4.30
2017-04-22T04:33:40.655Z,4.30
2017-04-22T04:34:46.483Z,4.30
2017-04-22T04:35:52.534Z,4.30
2017-04-22T04:36:58.823Z,4.30
2017-04-22T04:38:05.524Z,4.20
2017-04-22T04:39:12.422Z,4.30
2017-04-22T04:40:18.364Z,4.30
2017-04-22T04:41:24.374Z,4.30
2017-04-22T04:42:30.208Z,4.30
2017-04-22T04:43:36.974Z,4.30
2017-04-22T04:44:42.999Z,4.30
2017-04-22T04:45:49.724Z,4.30
2017-04-22T04:46:56.357Z,4.30
2017-04-22T04:48:02.181Z,4.30
2017-04-22T04:49:07.929Z,4.20
2017-04-22T04:50:13.866Z,4.30
2017-04-22T04:51:19.609Z,4.30
2017-04-22T04:52:25.709Z,4.30
2017-04-22T04:53:31.576Z,4.30
2017-04-22T04:54:38.205Z,4.40
2017-04-22T04:56:51.265Z,4.40
2017-04-22T04:57:58.108Z,4.40
2017-04-22T04:59:04.104Z,4.50
2017-04-22T05:00:10.177Z,4.50
2017-04-22T05:01:16.100Z,4.50
2017-04-22T05:02:22.117Z,4.50
2017-04-22T05:03:27.891Z,4.50
2017-04-22T05:04:33.768Z,4.50
2017-04-22T05:05:40.289Z,4.40
2017-04-22T05:06:46.068Z,4.40
2017-04-22T05:07:51.725Z,4.40
2017-04-22T05:08:57.736Z,4.50
2017-04-22T05:10:03.568Z,4.50
2017-04-22T05:11:09.626Z,4.60
2017-04-22T05:12:16.172Z,4.60
2017-04-22T05:13:22.878Z,4.60
2017-04-22T05:14:28.792Z,4.80
2017-04-22T05:15:34.481Z,4.80
2017-04-22T05:16:40.330Z,4.90
2017-04-22T05:17:46.278Z,5.00
2017-04-22T05:18:52.193Z,5.10
2017-04-22T05:19:58.850Z,5.50
2017-04-22T05:21:04.711Z,5.90
2017-04-22T05:22:10.545Z,6.30
2017-04-22T05:23:16.463Z,6.40
2017-04-22T05:24:23.145Z,6.60
2017-04-22T05:25:29.168Z,6.60
2017-04-22T05:26:35.169Z,6.40
2017-04-22T05:27:40.979Z,6.20
2017-04-22T05:28:47.732Z,6.30
2017-04-22T05:29:53.761Z,6.40
2017-04-22T05:31:00.516Z,6.30
2017-04-22T05:32:06.320Z,6.50
2017-04-22T05:33:13.049Z,6.70
2017-04-22T05:34:19.504Z,6.60
2017-04-22T05:35:26.547Z,6.30
2017-04-22T05:36:33.101Z,5.90
2017-04-22T05:37:38.989Z,5.70
2017-04-22T05:38:44.914Z,5.80
2017-04-22T05:39:50.936Z,5.70
2017-04-22T05:40:56.960Z,5.70
2017-04-22T05:42:03.673Z,5.60
2017-04-22T05:43:10.232Z,5.50
2017-04-22T05:44:16.117Z,5.70
2017-04-22T05:45:21.938Z,6.00
2017-04-22T05:46:27.983Z,6.40
2017-04-22T05:47:35.827Z,6.50
2017-04-22T05:48:42.513Z,6.40
2017-04-22T05:49:49.151Z,6.30
2017-04-22T05:50:55.021Z,6.50
2017-04-22T05:52:01.024Z,6.40
2017-04-22T05:53:07.543Z,6.40
2017-04-22T05:54:14.209Z,5.80
2017-04-22T05:55:21.031Z,5.80
2017-04-22T05:56:27.073Z,5.90
2017-04-22T05:57:33.570Z,5.90
2017-04-22T05:58:39.521Z,5.80
2017-04-22T05:59:45.400Z,5.80
2017-04-22T06:00:51.361Z,5.80
2017-04-22T06:01:57.418Z,6.00
2017-04-22T06:03:03.832Z,6.10
2017-04-22T06:04:09.991Z,5.90
2017-04-22T06:05:16.775Z,5.70
2017-04-22T06:06:23.428Z,5.70
2017-04-22T06:07:29.511Z,5.70
2017-04-22T06:08:36.045Z,5.70
2017-04-22T06:09:42.817Z,5.90
2017-04-22T06:10:48.874Z,6.40
2017-04-22T06:11:54.937Z,6.70
2017-04-22T06:13:00.909Z,7.00
2017-04-22T06:14:06.893Z,6.80
2017-04-22T06:15:12.673Z,6.60
2017-04-22T06:16:19.426Z,6.20
2017-04-22T06:17:25.474Z,6.40
2017-04-22T06:18:31.839Z,6.20
2017-04-22T06:19:37.652Z,6.30
2017-04-22T06:20:44.842Z,6.40
2017-04-22T06:21:51.541Z,6.30
2017-04-22T06:22:57.536Z,6.30
2017-04-22T06:24:03.469Z,6.40
2017-04-22T06:25:11.169Z,6.10
2017-04-22T06:26:19.207Z,6.30
2017-04-22T06:27:25.178Z,6.30
2017-04-22T06:28:31.575Z,6.30
2017-04-22T06:29:37.879Z,6.30
2017-04-22T06:30:43.811Z,6.60
2017-04-22T06:31:49.871Z,6.70
2017-04-22T06:32:57.589Z,6.70
2017-04-22T06:34:03.670Z,6.60
2017-04-22T06:35:10.784Z,6.40
2017-04-22T06:36:16.777Z,6.40
2017-04-22T06:37:23.287Z,6.60
2017-04-22T06:38:29.407Z,6.60
2017-04-22T06:39:36.374Z,6.60
2017-04-22T06:40:42.918Z,6.80
2017-04-22T06:41:49.621Z,6.50
2017-04-22T06:42:55.722Z,6.70
2017-04-22T06:44:02.169Z,6.70
2017-04-22T06:45:08.192Z,6.60
2017-04-22T06:46:14.042Z,6.60
2017-04-22T06:47:20.174Z,6.50
2017-04-22T06:48:26.158Z,6.60
2017-04-22T06:49:32.974Z,6.60
2017-04-22T06:50:39.035Z,6.50
2017-04-22T06:51:45.186Z,6.50
2017-04-22T06:52:51.072Z,6.50
2017-04-22T06:53:57.967Z,6.60
2017-04-22T06:55:04.812Z,6.50
2017-04-22T06:56:11.834Z,6.40
2017-04-22T06:57:17.924Z,6.40
2017-04-22T06:58:23.853Z,6.40
2017-04-22T06:59:29.876Z,6.60
2017-04-22T07:00:35.923Z,6.60
2017-04-22T07:01:42.083Z,6.70
2017-04-22T07:02:47.851Z,6.70
2017-04-22T07:03:53.859Z,6.70
2017-04-22T07:05:02.547Z,6.70
2017-04-22T07:06:08.515Z,6.90
2017-04-22T07:07:14.877Z,6.90
2017-04-22T07:08:20.927Z,6.90
2017-04-22T07:09:27.198Z,6.80
2017-04-22T07:10:33.071Z,6.60
2017-04-22T07:11:39.968Z,6.70
2017-04-22T07:12:46.444Z,6.70
2017-04-22T07:13:52.539Z,6.70
2017-04-22T07:14:58.742Z,6.60
2017-04-22T07:16:05.655Z,6.60
2017-04-22T07:17:12.253Z,6.60
2017-04-22T07:18:18.147Z,6.50
2017-04-22T07:19:24.185Z,6.50
2017-04-22T07:20:30.549Z,6.50
2017-04-22T07:21:36.372Z,6.60
2017-04-22T07:22:42.870Z,6.50
2017-04-22T07:23:48.741Z,6.50
2017-04-22T07:24:55.715Z,6.60
2017-04-22T07:26:01.633Z,6.50
2017-04-22T07:27:08.133Z,6.90
2017-04-22T07:28:14.293Z,7.00
2017-04-22T07:29:20.933Z,7.20
2017-04-22T07:30:26.920Z,7.40
2017-04-22T07:31:32.970Z,7.70
2017-04-22T07:32:38.981Z,7.50
2017-04-22T07:33:44.756Z,7.50
2017-04-22T07:34:50.428Z,7.70
2017-04-22T07:35:56.921Z,8.00
2017-04-22T07:37:03.600Z,8.30
2017-04-22T07:38:09.655Z,8.30
2017-04-22T07:39:15.612Z,8.20
2017-04-22T07:40:21.345Z,8.10
2017-04-22T07:41:27.208Z,7.70
2017-04-22T07:42:33.293Z,7.50
2017-04-22T07:43:39.420Z,7.50
2017-04-22T07:44:45.265Z,7.30
2017-04-22T07:45:51.739Z,7.30
2017-04-22T07:46:57.638Z,7.20
2017-04-22T07:48:03.553Z,7.40
2017-04-22T07:49:09.530Z,7.40
2017-04-22T07:50:15.422Z,7.30
2017-04-22T07:51:21.265Z,7.00
2017-04-22T07:52:27.264Z,7.10
2017-04-22T07:53:33.308Z,7.40
2017-04-22T07:54:39.695Z,7.50
2017-04-22T07:55:46.645Z,7.60
2017-04-22T07:56:53.374Z,7.30
2017-04-22T07:58:01.194Z,7.30
2017-04-22T07:59:07.240Z,7.20
2017-04-22T08:01:19.529Z,7.20
2017-04-22T08:02:26.125Z,7.30
2017-04-22T08:03:32.849Z,7.70
2017-04-22T08:04:39.046Z,8.00
2017-04-22T08:05:45.240Z,8.00
2017-04-22T08:06:52.546Z,7.90
2017-04-22T08:07:59.666Z,7.60
2017-04-22T08:09:06.390Z,7.60
2017-04-22T08:10:13.078Z,7.40
2017-04-22T08:11:19.161Z,6.80
2017-04-22T08:12:29.148Z,6.50
2017-04-22T08:13:38.698Z,6.40
2017-04-22T08:14:48.048Z,6.40
2017-04-22T08:15:56.186Z,6.50
2017-04-22T08:17:03.057Z,6.80
2017-04-22T08:18:08.972Z,6.80
2017-04-22T08:19:14.864Z,6.60
2017-04-22T08:20:21.315Z,6.90
2017-04-22T08:21:27.309Z,6.90
2017-04-22T08:22:33.485Z,6.60
2017-04-22T08:23:39.298Z,6.50
2017-04-22T08:24:45.474Z,6.40
2017-04-22T08:25:51.447Z,6.60
2017-04-22T08:26:57.474Z,6.70
2017-04-22T08:28:03.675Z,7.00
2017-04-22T08:29:09.544Z,7.10
2017-04-22T08:30:15.671Z,7.00
2017-04-22T08:31:22.388Z,7.10
2017-04-22T08:32:28.965Z,7.30
2017-04-22T08:33:34.884Z,7.30
2017-04-22T08:34:40.769Z,7.50
2017-04-22T08:35:48.578Z,7.60
2017-04-22T08:36:55.345Z,7.60
2017-04-22T08:38:01.152Z,7.70
2017-04-22T08:39:07.743Z,7.60
2017-04-22T08:40:13.785Z,7.80
2017-04-22T08:41:20.576Z,7.60
2017-04-22T08:42:26.330Z,7.60
2017-04-22T08:43:32.200Z,7.70
2017-04-22T08:44:38.231Z,7.70
2017-04-22T08:45:44.365Z,7.80
2017-04-22T08:46:52.011Z,8.00
2017-04-22T08:47:56.245Z,8.10
2017-04-22T08:49:02.042Z,8.40
2017-04-22T08:50:07.792Z,8.30
2017-04-22T08:51:13.868Z,8.30
2017-04-22T08:52:20.657Z,8.10
2017-04-22T08:53:27.503Z,8.30
2017-04-22T08:54:34.278Z,8.10
2017-04-22T08:55:40.212Z,8.10
2017-04-22T08:56:47.004Z,8.40
2017-04-22T08:57:53.019Z,8.60
2017-04-22T08:58:59.043Z,8.80
2017-04-22T09:00:05.111Z,9.00
2017-04-22T09:01:11.024Z,9.40
2017-04-22T09:02:16.825Z,9.10
2017-04-22T09:03:23.582Z,8.80
2017-04-22T09:04:29.797Z,8.70
2017-04-22T09:05:36.061Z,8.50
2017-04-22T09:06:42.088Z,8.10
2017-04-22T09:07:47.931Z,8.50
2017-04-22T09:08:53.980Z,8.30
2017-04-22T09:10:01.175Z,8.10
2017-04-22T09:11:08.444Z,8.00
2017-04-22T09:12:14.533Z,8.00
2017-04-22T09:13:21.510Z,8.60
2017-04-22T09:14:27.601Z,8.50
2017-04-22T09:15:33.675Z,8.50
2017-04-22T09:16:39.604Z,8.60
2017-04-22T09:17:46.357Z,8.50
2017-04-22T09:18:53.074Z,9.00
2017-04-22T09:19:59.181Z,9.20
2017-04-22T09:21:05.117Z,9.20
2017-04-22T09:22:11.016Z,9.20
2017-04-22T09:23:16.991Z,9.90
2017-04-22T09:24:24.044Z,9.60
2017-04-22T09:25:30.205Z,9.60
2017-04-22T09:26:36.790Z,9.70
2017-04-22T09:27:43.804Z,10.10
2017-04-22T09:28:49.720Z,9.90
2017-04-22T09:29:56.220Z,10.10
2017-04-22T09:31:03.218Z,9.80
2017-04-22T09:32:09.181Z,9.80
2017-04-22T09:33:15.064Z,10.10
2017-04-22T09:34:21.661Z,10.00
2017-04-22T09:35:27.652Z,10.10
2017-04-22T09:36:33.797Z,10.00
2017-04-22T09:37:40.100Z,9.70
2017-04-22T09:38:45.919Z,9.90
2017-04-22T09:39:52.138Z,10.10
2017-04-22T09:41:01.490Z,9.40
2017-04-22T09:43:50.002Z,9.60
2017-04-22T09:44:56.780Z,9.00
2017-04-22T09:46:02.792Z,8.90
2017-04-22T09:47:08.538Z,8.80
2017-04-22T09:48:14.554Z,8.80
2017-04-22T09:49:20.610Z,8.70
2017-04-22T09:50:26.650Z,8.90
2017-04-22T09:51:32.646Z,8.90
2017-04-22T09:52:38.600Z,8.70
2017-04-22T09:53:44.345Z,8.80
2017-04-22T09:54:50.268Z,8.80
2017-04-22T09:55:56.155Z,8.30
2017-04-22T09:57:02.737Z,8.00
2017-04-22T09:58:09.298Z,7.60
2017-04-22T09:59:15.976Z,7.30
2017-04-22T10:00:21.714Z,7.10
2017-04-22T10:01:27.489Z,6.90
2017-04-22T10:02:34.126Z,6.80
2017-04-22T10:03:39.944Z,7.20
2017-04-22T10:04:47.257Z,7.70
2017-04-22T10:05:53.043Z,8.60
2017-04-22T10:06:59.018Z,9.10
2017-04-22T10:08:05.085Z,9.50
2017-04-22T10:09:12.011Z,9.60
2017-04-22T10:10:18.003Z,9.80
2017-04-22T10:11:24.015Z,9.40
2017-04-22T10:12:30.241Z,9.40
2017-04-22T10:13:36.225Z,9.70
2017-04-22T10:14:42.446Z,9.80
2017-04-22T10:15:48.210Z,9.60
2017-04-22T10:16:54.250Z,9.40
2017-04-22T10:18:00.098Z,8.80
2017-04-22T10:19:05.818Z,7.80
2017-04-22T10:20:12.542Z,7.30
2017-04-22T10:21:18.516Z,6.90
2017-04-22T10:22:24.541Z,6.70
2017-04-22T10:23:30.793Z,6.50
2017-04-22T10:24:36.780Z,6.60
2017-04-22T10:25:43.358Z,6.70
2017-04-22T10:26:49.397Z,6.70
2017-04-22T10:27:56.061Z,6.90
2017-04-22T10:29:01.957Z,7.30
2017-04-22T10:30:07.667Z,7.50
2017-04-22T10:31:13.721Z,7.90
2017-04-22T10:32:19.753Z,8.00
2017-04-22T10:33:25.542Z,8.10
2017-04-22T10:34:31.327Z,8.00
2017-04-22T10:35:37.467Z,8.20
2017-04-22T10:36:44.096Z,8.50
2017-04-22T10:37:50.836Z,8.70
2017-04-22T10:38:56.672Z,8.50
2017-04-22T10:40:02.857Z,8.40
2017-04-22T10:41:08.850Z,8.40
2017-04-22T10:42:14.589Z,8.40
2017-04-22T10:43:21.281Z,8.60
2017-04-22T10:44:27.313Z,8.70
2017-04-22T10:45:33.161Z,8.40
2017-04-22T10:46:38.925Z,8.30
2017-04-22T10:47:45.088Z,7.90
2017-04-22T10:48:51.038Z,7.80
2017-04-22T10:49:56.825Z,7.60
2017-04-22T10:51:02.775Z,7.00
2017-04-22T10:52:08.749Z,6.50
2017-04-22T10:53:14.631Z,6.30
2017-04-22T10:54:20.392Z,6.30
2017-04-22T10:55:26.238Z,5.90
2017-04-22T10:56:32.380Z,5.80
2017-04-22T10:57:38.233Z,5.90
2017-04-22T10:58:44.940Z,5.90
2017-04-22T10:59:51.104Z,5.90
2017-04-22T11:00:57.624Z,5.90
2017-04-22T11:02:03.437Z,6.10
2017-04-22T11:03:09.341Z,6.40
2017-04-22T11:04:16.236Z,6.70
2017-04-22T11:05:22.976Z,6.90
2017-04-22T11:06:33.034Z,7.00
2017-04-22T11:07:39.054Z,7.30
2017-04-22T11:08:44.956Z,7.60
2017-04-22T11:09:50.893Z,8.10
2017-04-22T11:10:56.680Z,8.30
2017-04-22T11:12:04.169Z,8.10
2017-04-22T11:13:10.073Z,8.10
2017-04-22T11:15:51.324Z,7.40
2017-04-22T11:16:58.100Z,7.40
2017-04-22T11:18:03.950Z,6.90
2017-04-22T11:19:09.748Z,6.20
2017-04-22T11:20:15.515Z,5.90
2017-04-22T11:21:21.378Z,5.70
2017-04-22T11:22:27.389Z,5.70
2017-04-22T11:23:33.114Z,5.70
2017-04-22T11:24:39.010Z,5.80
2017-04-22T11:25:45.500Z,6.10
2017-04-22T11:28:30.930Z,7.40
2017-04-22T11:29:36.744Z,7.60
2017-04-22T11:30:43.288Z,7.60
2017-04-22T11:31:50.044Z,8.00
2017-04-22T11:32:56.093Z,8.40
2017-04-22T11:34:01.989Z,8.50
2017-04-22T11:35:07.871Z,8.90
2017-04-22T11:36:14.525Z,9.20
2017-04-22T11:37:20.553Z,9.10
2017-04-22T11:38:26.772Z,9.30
2017-04-22T11:39:32.677Z,8.90
2017-04-22T11:40:38.583Z,9.10
2017-04-22T11:41:44.751Z,9.00
2017-04-22T11:42:50.704Z,9.20
2017-04-22T11:43:57.421Z,9.00
2017-04-22T11:45:04.425Z,9.00
2017-04-22T11:46:10.485Z,9.20
2017-04-22T11:48:51.724Z,9.80
2017-04-22T11:49:58.441Z,9.80
2017-04-22T11:51:04.401Z,9.10
2017-04-22T11:52:10.184Z,9.20
2017-04-22T11:54:53.136Z,9.00
2017-04-22T11:55:59.126Z,9.10
2017-04-22T11:57:05.665Z,8.50
2017-04-22T11:58:11.518Z,9.10
2017-04-22T11:59:17.328Z,9.30
2017-04-22T12:00:23.937Z,9.40
2017-04-22T12:01:30.368Z,9.00
2017-04-22T12:02:36.996Z,8.50
2017-04-22T12:03:43.110Z,8.30
2017-04-22T12:04:49.199Z,8.00
2017-04-22T12:05:55.433Z,7.50
2017-04-22T12:07:01.629Z,7.40
2017-04-22T12:08:07.591Z,7.00
2017-04-22T12:09:13.539Z,7.10
2017-04-22T12:10:20.966Z,7.10
2017-04-22T12:11:27.245Z,7.20
2017-04-22T12:12:33.149Z,7.60
2017-04-22T12:13:38.900Z,7.50
2017-04-22T12:14:45.497Z,7.70
2017-04-22T12:15:51.306Z,8.30
2017-04-22T12:16:57.332Z,8.40
2017-04-22T12:18:03.496Z,8.70
2017-04-22T12:19:09.490Z,9.20
2017-04-22T12:20:15.305Z,9.10
2017-04-22T12:21:21.323Z,9.50
2017-04-22T12:22:27.996Z,9.70
2017-04-22T12:23:34.673Z,9.80
2017-04-22T12:24:40.728Z,9.80
2017-04-22T12:25:46.645Z,10.20
2017-04-22T12:27:58.648Z,10.20
2017-04-22T12:29:04.548Z,10.20
2017-04-22T12:30:11.084Z,9.40
2017-04-22T12:31:17.033Z,9.10
2017-04-22T12:32:23.597Z,9.20
2017-04-22T12:33:29.437Z,9.40
2017-04-22T12:34:35.476Z,9.60
2017-04-22T12:35:41.801Z,10.00
2017-04-22T12:36:47.544Z,10.10
2017-04-22T12:37:53.335Z,10.20
2017-04-22T12:38:59.949Z,10.20
2017-04-22T12:40:05.824Z,10.30
2017-04-22T12:41:11.822Z,10.20
2017-04-22T12:43:52.602Z,9.80
2017-04-22T12:44:58.693Z,9.90
2017-04-22T12:46:05.273Z,9.80
2017-04-22T12:47:11.312Z,9.70
2017-04-22T12:48:18.078Z,9.50
2017-04-22T12:49:24.009Z,9.40
2017-04-22T12:50:29.872Z,9.20
2017-04-22T12:51:35.597Z,9.10
2017-04-22T12:52:42.173Z,8.80
2017-04-22T12:53:48.585Z,8.70
2017-04-22T12:54:55.459Z,8.60
2017-04-22T12:56:01.720Z,8.70
2017-04-22T12:57:07.747Z,9.20
2017-04-22T12:58:13.747Z,9.50
2017-04-22T12:59:21.109Z,9.90
2017-04-22T13:02:22.439Z,9.70
2017-04-22T13:03:29.217Z,9.80
2017-04-22T13:06:09.644Z,10.40
2017-04-22T13:07:15.657Z,9.80
2017-04-22T13:08:21.512Z,9.50
2017-04-22T13:09:27.384Z,9.60
2017-04-22T13:10:33.369Z,9.60
2017-04-22T13:11:40.187Z,9.60
2017-04-22T13:12:46.006Z,9.40
2017-04-22T13:13:52.295Z,9.80
2017-04-22T13:14:58.108Z,10.50
2017-04-22T13:16:04.863Z,10.10
2017-04-22T13:17:11.070Z,10.00
2017-04-22T13:18:17.018Z,9.60
2017-04-22T13:19:23.244Z,9.70
2017-04-22T13:20:29.238Z,9.40
2017-04-22T13:21:35.113Z,9.20
2017-04-22T13:22:41.113Z,9.20
2017-04-22T13:23:47.184Z,9.20
2017-04-22T13:24:53.182Z,9.00
2017-04-22T13:25:59.286Z,9.20
2017-04-22T13:27:05.250Z,9.40
2017-04-22T13:28:11.931Z,9.80
2017-04-22T13:29:18.502Z,10.10
2017-04-22T13:30:24.651Z,10.50
2017-04-22T13:32:38.749Z,10.70
2017-04-22T13:33:44.738Z,10.60
2017-04-22T13:34:50.561Z,10.50
2017-04-22T13:35:56.406Z,10.40
2017-04-22T13:37:03.610Z,10.90
2017-04-22T13:38:09.436Z,11.40
2017-04-22T13:39:15.953Z,11.80
2017-04-22T13:40:21.876Z,11.40
2017-04-22T13:41:27.836Z,11.10
2017-04-22T13:42:33.829Z,11.00
2017-04-22T13:43:39.933Z,10.90
2017-04-22T13:44:46.721Z,10.80
2017-04-22T13:45:52.662Z,10.70
2017-04-22T13:46:58.741Z,10.70
2017-04-22T13:48:04.721Z,10.40
2017-04-22T13:49:10.712Z,10.50
2017-04-22T13:50:16.627Z,10.50
2017-04-22T13:51:22.655Z,10.00
2017-04-22T13:52:29.158Z,9.80
2017-04-22T13:53:35.491Z,9.50
2017-04-22T13:54:42.161Z,9.10
2017-04-22T13:55:48.768Z,8.70
2017-04-22T13:56:54.525Z,8.60
2017-04-22T13:58:00.244Z,8.80
2017-04-22T13:59:06.842Z,9.00
2017-04-22T14:00:12.867Z,9.00
2017-04-22T14:01:19.369Z,8.90
2017-04-22T14:02:25.176Z,9.00
2017-04-22T14:03:31.757Z,9.20
2017-04-22T14:04:37.801Z,9.00
2017-04-22T14:05:44.543Z,9.00
2017-04-22T14:06:50.556Z,9.00
2017-04-22T14:07:56.685Z,9.30
2017-04-22T14:09:02.671Z,9.10
2017-04-22T14:10:09.356Z,8.90
2017-04-22T14:11:15.313Z,8.70
2017-04-22T14:12:21.040Z,9.00
2017-04-22T14:13:27.513Z,9.40
2017-04-22T14:14:33.813Z,9.70
2017-04-22T14:15:39.737Z,9.80
2017-04-22T14:16:46.484Z,9.50
2017-04-22T14:17:53.177Z,9.40
2017-04-22T14:18:59.129Z,9.50
2017-04-22T14:20:04.930Z,9.40
2017-04-22T14:21:10.917Z,9.40
2017-04-22T14:22:16.879Z,9.60
2017-04-22T14:23:22.622Z,9.90
2017-04-22T14:24:29.236Z,9.80
2017-04-22T14:25:35.285Z,10.10
2017-04-22T14:26:41.379Z,10.40
2017-04-22T14:27:47.226Z,10.60
2017-04-22T14:28:52.988Z,10.60
2017-04-22T14:29:58.864Z,10.50
2017-04-22T14:31:05.818Z,10.30
2017-04-22T14:32:12.059Z,10.20
2017-04-22T14:33:18.009Z,10.00
2017-04-22T14:34:23.995Z,9.80
2017-04-22T14:35:30.136Z,9.80
2017-04-22T14:36:36.044Z,9.50
2017-04-22T14:37:42.197Z,9.40
2017-04-22T14:38:48.173Z,9.20
2017-04-22T14:39:54.894Z,9.30
2017-04-22T14:41:00.769Z,9.10
2017-04-22T14:42:06.672Z,8.80
2017-04-22T14:43:13.201Z,8.90
2017-04-22T14:44:20.058Z,9.00
2017-04-22T14:45:26.585Z,9.10
2017-04-22T14:46:32.661Z,9.50
2017-04-22T14:47:38.654Z,9.80
2017-04-22T14:48:45.235Z,9.90
2017-04-22T14:49:51.154Z,9.60
2017-04-22T14:50:57.292Z,9.40
2017-04-22T14:52:03.109Z,9.20
2017-04-22T14:53:08.965Z,9.30
2017-04-22T14:54:15.113Z,9.30
2017-04-22T14:55:21.777Z,9.20
2017-04-22T14:56:27.548Z,8.80
2017-04-22T14:57:33.301Z,8.90